sensor_id;sensor_type;location;lat;lon;timestamp;P1;durP1;ratioP1;P2;durP2;ratioP2
69894;SDS011;57172;52.034;5.090;2024-01-07T00:00:49;17.23;;;9.20;;
69894;SDS011;57172;52.034;5.090;2024-01-07T00:03:16;16.50;;;9.38;;
69894;SDS011;57172;52.034;5.090;2024-01-07T00:05:43;18.88;;;9.50;;
69894;SDS011;57172;52.034;5.090;2024-01-07T00:08:10;15.17;;;8.60;;
69894;SDS011;57172;52.034;5.090;2024-01-07T00:10:37;18.73;;;9.43;;
69894;SDS011;57172;52.034;5.090;2024-01-07T00:13:03;18.05;;;9.95;;
69894;SDS011;57172;52.034;5.090;2024-01-07T00:15:30;17.52;;;9.52;;
69894;SDS011;57172;52.034;5.090;2024-01-07T00:17:57;18.95;;;9.32;;
69894;SDS011;57172;52.034;5.090;2024-01-07T00:20:24;17.47;;;9.60;;
69894;SDS011;57172;52.034;5.090;2024-01-07T00:22:51;17.95;;;9.98;;
69894;SDS011;57172;52.034;5.090;2024-01-07T00:25:18;19.75;;;10.30;;
69894;SDS011;57172;52.034;5.090;2024-01-07T00:27:45;18.25;;;10.15;;
69894;SDS011;57172;52.034;5.090;2024-01-07T00:30:12;19.05;;;9.82;;
69894;SDS011;57172;52.034;5.090;2024-01-07T00:32:39;18.40;;;9.70;;
69894;SDS011;57172;52.034;5.090;2024-01-07T00:35:07;20.25;;;9.88;;
69894;SDS011;57172;52.034;5.090;2024-01-07T00:37:34;19.70;;;9.90;;
69894;SDS011;57172;52.034;5.090;2024-01-07T00:40:01;19.20;;;10.57;;
69894;SDS011;57172;52.034;5.090;2024-01-07T00:42:28;18.95;;;9.82;;
69894;SDS011;57172;52.034;5.090;2024-01-07T00:44:55;17.53;;;9.60;;
69894;SDS011;57172;52.034;5.090;2024-01-07T00:47:22;19.00;;;10.15;;
69894;SDS011;57172;52.034;5.090;2024-01-07T00:49:49;18.50;;;9.77;;
69894;SDS011;57172;52.034;5.090;2024-01-07T00:52:16;19.58;;;9.88;;
69894;SDS011;57172;52.034;5.090;2024-01-07T00:54:43;20.95;;;10.23;;
69894;SDS011;57172;52.034;5.090;2024-01-07T00:57:10;17.50;;;9.37;;
69894;SDS011;57172;52.034;5.090;2024-01-07T00:59:38;21.10;;;10.57;;
69894;SDS011;57172;52.034;5.090;2024-01-07T01:02:05;20.63;;;10.48;;
69894;SDS011;57172;52.034;5.090;2024-01-07T01:04:32;20.48;;;10.05;;
69894;SDS011;57172;52.034;5.090;2024-01-07T01:06:59;21.67;;;10.20;;
69894;SDS011;57172;52.034;5.090;2024-01-07T01:09:27;21.27;;;10.60;;
69894;SDS011;57172;52.034;5.090;2024-01-07T01:11:55;20.52;;;10.68;;
69894;SDS011;57172;52.034;5.090;2024-01-07T01:14:22;20.48;;;10.48;;
69894;SDS011;57172;52.034;5.090;2024-01-07T01:16:49;19.85;;;10.65;;
69894;SDS011;57172;52.034;5.090;2024-01-07T01:19:16;20.63;;;10.60;;
69894;SDS011;57172;52.034;5.090;2024-01-07T01:21:44;21.27;;;10.80;;
69894;SDS011;57172;52.034;5.090;2024-01-07T01:24:11;21.73;;;10.88;;
69894;SDS011;57172;52.034;5.090;2024-01-07T01:26:38;20.75;;;10.57;;
69894;SDS011;57172;52.034;5.090;2024-01-07T01:29:06;21.65;;;11.30;;
69894;SDS011;57172;52.034;5.090;2024-01-07T01:31:32;21.58;;;10.32;;
69894;SDS011;57172;52.034;5.090;2024-01-07T01:33:59;19.97;;;10.63;;
69894;SDS011;57172;52.034;5.090;2024-01-07T01:36:27;19.05;;;10.10;;
69894;SDS011;57172;52.034;5.090;2024-01-07T01:38:53;19.38;;;10.35;;
69894;SDS011;57172;52.034;5.090;2024-01-07T01:41:20;19.02;;;10.25;;
69894;SDS011;57172;52.034;5.090;2024-01-07T01:43:47;20.05;;;10.63;;
69894;SDS011;57172;52.034;5.090;2024-01-07T01:46:14;19.50;;;10.43;;
69894;SDS011;57172;52.034;5.090;2024-01-07T01:48:41;18.73;;;9.68;;
69894;SDS011;57172;52.034;5.090;2024-01-07T01:51:09;20.15;;;10.20;;
69894;SDS011;57172;52.034;5.090;2024-01-07T01:53:36;18.58;;;10.00;;
69894;SDS011;57172;52.034;5.090;2024-01-07T01:56:04;20.58;;;10.18;;
69894;SDS011;57172;52.034;5.090;2024-01-07T01:58:31;19.87;;;10.83;;
69894;SDS011;57172;52.034;5.090;2024-01-07T02:00:59;19.80;;;10.63;;
69894;SDS011;57172;52.034;5.090;2024-01-07T02:03:26;21.55;;;11.02;;
69894;SDS011;57172;52.034;5.090;2024-01-07T02:05:53;20.58;;;10.65;;
69894;SDS011;57172;52.034;5.090;2024-01-07T02:08:21;19.75;;;10.60;;
69894;SDS011;57172;52.034;5.090;2024-01-07T02:10:48;20.57;;;11.03;;
69894;SDS011;57172;52.034;5.090;2024-01-07T02:13:15;21.05;;;10.32;;
69894;SDS011;57172;52.034;5.090;2024-01-07T02:15:42;19.95;;;10.48;;
69894;SDS011;57172;52.034;5.090;2024-01-07T02:18:10;19.90;;;10.38;;
69894;SDS011;57172;52.034;5.090;2024-01-07T02:20:36;20.45;;;10.15;;
69894;SDS011;57172;52.034;5.090;2024-01-07T02:23:03;18.67;;;9.77;;
69894;SDS011;57172;52.034;5.090;2024-01-07T02:25:37;19.13;;;9.70;;
69894;SDS011;57172;52.034;5.090;2024-01-07T02:28:04;19.38;;;9.73;;
69894;SDS011;57172;52.034;5.090;2024-01-07T02:30:32;18.67;;;10.13;;
69894;SDS011;57172;52.034;5.090;2024-01-07T02:33:02;19.88;;;9.80;;
69894;SDS011;57172;52.034;5.090;2024-01-07T02:35:30;20.60;;;10.30;;
69894;SDS011;57172;52.034;5.090;2024-01-07T02:37:57;21.85;;;10.27;;
69894;SDS011;57172;52.034;5.090;2024-01-07T02:40:24;23.73;;;10.95;;
69894;SDS011;57172;52.034;5.090;2024-01-07T02:42:51;22.02;;;10.88;;
69894;SDS011;57172;52.034;5.090;2024-01-07T02:45:18;21.60;;;10.88;;
69894;SDS011;57172;52.034;5.090;2024-01-07T02:47:45;23.43;;;11.33;;
69894;SDS011;57172;52.034;5.090;2024-01-07T02:50:12;21.98;;;10.60;;
69894;SDS011;57172;52.034;5.090;2024-01-07T02:52:39;23.10;;;11.23;;
69894;SDS011;57172;52.034;5.090;2024-01-07T02:55:06;23.17;;;11.40;;
69894;SDS011;57172;52.034;5.090;2024-01-07T02:57:34;24.95;;;11.32;;
69894;SDS011;57172;52.034;5.090;2024-01-07T03:00:01;24.80;;;11.40;;
69894;SDS011;57172;52.034;5.090;2024-01-07T03:02:28;24.60;;;11.95;;
69894;SDS011;57172;52.034;5.090;2024-01-07T03:04:55;27.40;;;12.45;;
69894;SDS011;57172;52.034;5.090;2024-01-07T03:07:22;24.90;;;12.52;;
69894;SDS011;57172;52.034;5.090;2024-01-07T03:09:49;27.15;;;12.25;;
69894;SDS011;57172;52.034;5.090;2024-01-07T03:12:16;27.33;;;12.17;;
69894;SDS011;57172;52.034;5.090;2024-01-07T03:14:43;29.42;;;13.00;;
69894;SDS011;57172;52.034;5.090;2024-01-07T03:17:10;26.70;;;13.15;;
69894;SDS011;57172;52.034;5.090;2024-01-07T03:19:37;29.13;;;12.93;;
69894;SDS011;57172;52.034;5.090;2024-01-07T03:22:06;29.25;;;13.32;;
69894;SDS011;57172;52.034;5.090;2024-01-07T03:24:33;26.90;;;12.90;;
69894;SDS011;57172;52.034;5.090;2024-01-07T03:27:00;26.65;;;13.07;;
69894;SDS011;57172;52.034;5.090;2024-01-07T03:29:27;27.95;;;12.77;;
69894;SDS011;57172;52.034;5.090;2024-01-07T03:31:54;27.27;;;13.13;;
69894;SDS011;57172;52.034;5.090;2024-01-07T03:34:21;25.58;;;13.32;;
69894;SDS011;57172;52.034;5.090;2024-01-07T03:36:49;26.73;;;12.20;;
69894;SDS011;57172;52.034;5.090;2024-01-07T03:39:16;26.65;;;12.48;;
69894;SDS011;57172;52.034;5.090;2024-01-07T03:41:42;26.02;;;12.57;;
69894;SDS011;57172;52.034;5.090;2024-01-07T03:44:09;26.33;;;12.52;;
69894;SDS011;57172;52.034;5.090;2024-01-07T03:46:36;26.92;;;12.57;;
69894;SDS011;57172;52.034;5.090;2024-01-07T03:49:03;27.13;;;12.73;;
69894;SDS011;57172;52.034;5.090;2024-01-07T03:51:30;25.80;;;12.45;;
69894;SDS011;57172;52.034;5.090;2024-01-07T03:53:57;26.65;;;12.80;;
69894;SDS011;57172;52.034;5.090;2024-01-07T03:56:24;22.85;;;12.13;;
69894;SDS011;57172;52.034;5.090;2024-01-07T03:58:51;24.55;;;12.68;;
69894;SDS011;57172;52.034;5.090;2024-01-07T04:01:18;26.57;;;12.37;;
69894;SDS011;57172;52.034;5.090;2024-01-07T04:03:45;26.60;;;12.85;;
69894;SDS011;57172;52.034;5.090;2024-01-07T04:06:12;24.25;;;12.25;;
69894;SDS011;57172;52.034;5.090;2024-01-07T04:08:39;26.60;;;12.73;;
69894;SDS011;57172;52.034;5.090;2024-01-07T04:11:05;26.85;;;12.82;;
69894;SDS011;57172;52.034;5.090;2024-01-07T04:13:32;25.83;;;12.13;;
69894;SDS011;57172;52.034;5.090;2024-01-07T04:15:59;28.00;;;12.82;;
69894;SDS011;57172;52.034;5.090;2024-01-07T04:18:26;25.23;;;12.23;;
69894;SDS011;57172;52.034;5.090;2024-01-07T04:20:53;24.83;;;12.40;;
69894;SDS011;57172;52.034;5.090;2024-01-07T04:23:20;26.85;;;12.82;;
69894;SDS011;57172;52.034;5.090;2024-01-07T04:25:47;26.33;;;12.33;;
69894;SDS011;57172;52.034;5.090;2024-01-07T04:28:13;28.95;;;12.70;;
69894;SDS011;57172;52.034;5.090;2024-01-07T04:30:40;29.40;;;13.85;;
69894;SDS011;57172;52.034;5.090;2024-01-07T04:33:07;26.25;;;13.15;;
69894;SDS011;57172;52.034;5.090;2024-01-07T04:35:34;28.27;;;13.70;;
69894;SDS011;57172;52.034;5.090;2024-01-07T04:38:03;28.17;;;13.10;;
69894;SDS011;57172;52.034;5.090;2024-01-07T04:40:29;25.77;;;12.27;;
69894;SDS011;57172;52.034;5.090;2024-01-07T04:42:56;26.08;;;12.20;;
69894;SDS011;57172;52.034;5.090;2024-01-07T04:45:23;30.63;;;14.30;;
69894;SDS011;57172;52.034;5.090;2024-01-07T04:47:50;29.45;;;13.32;;
69894;SDS011;57172;52.034;5.090;2024-01-07T04:50:17;28.43;;;12.80;;
69894;SDS011;57172;52.034;5.090;2024-01-07T04:52:46;33.08;;;13.35;;
69894;SDS011;57172;52.034;5.090;2024-01-07T04:55:13;29.95;;;14.05;;
69894;SDS011;57172;52.034;5.090;2024-01-07T04:57:44;31.08;;;13.95;;
69894;SDS011;57172;52.034;5.090;2024-01-07T05:00:11;28.48;;;13.38;;
69894;SDS011;57172;52.034;5.090;2024-01-07T05:02:38;34.50;;;14.77;;
69894;SDS011;57172;52.034;5.090;2024-01-07T05:05:07;31.52;;;14.02;;
69894;SDS011;57172;52.034;5.090;2024-01-07T05:07:34;31.02;;;13.88;;
69894;SDS011;57172;52.034;5.090;2024-01-07T05:10:01;32.70;;;14.07;;
69894;SDS011;57172;52.034;5.090;2024-01-07T05:12:29;29.05;;;13.30;;
69894;SDS011;57172;52.034;5.090;2024-01-07T05:14:56;31.17;;;13.50;;
69894;SDS011;57172;52.034;5.090;2024-01-07T05:17:23;28.52;;;12.77;;
69894;SDS011;57172;52.034;5.090;2024-01-07T05:19:50;27.40;;;13.38;;
69894;SDS011;57172;52.034;5.090;2024-01-07T05:22:17;28.00;;;12.90;;
69894;SDS011;57172;52.034;5.090;2024-01-07T05:24:44;28.02;;;12.88;;
69894;SDS011;57172;52.034;5.090;2024-01-07T05:27:11;26.83;;;13.07;;
69894;SDS011;57172;52.034;5.090;2024-01-07T05:29:38;25.55;;;12.05;;
69894;SDS011;57172;52.034;5.090;2024-01-07T05:32:05;24.38;;;12.50;;
69894;SDS011;57172;52.034;5.090;2024-01-07T05:34:32;26.80;;;12.55;;
69894;SDS011;57172;52.034;5.090;2024-01-07T05:36:59;24.73;;;11.88;;
69894;SDS011;57172;52.034;5.090;2024-01-07T05:39:25;25.20;;;12.10;;
69894;SDS011;57172;52.034;5.090;2024-01-07T05:41:52;23.10;;;11.65;;
69894;SDS011;57172;52.034;5.090;2024-01-07T05:44:19;23.17;;;11.27;;
69894;SDS011;57172;52.034;5.090;2024-01-07T05:46:46;21.30;;;11.40;;
69894;SDS011;57172;52.034;5.090;2024-01-07T05:49:13;23.45;;;11.50;;
69894;SDS011;57172;52.034;5.090;2024-01-07T05:51:40;21.27;;;10.53;;
69894;SDS011;57172;52.034;5.090;2024-01-07T05:54:07;22.35;;;11.40;;
69894;SDS011;57172;52.034;5.090;2024-01-07T05:56:40;23.63;;;11.68;;
69894;SDS011;57172;52.034;5.090;2024-01-07T05:59:08;23.35;;;11.65;;
69894;SDS011;57172;52.034;5.090;2024-01-07T06:01:35;22.40;;;11.40;;
69894;SDS011;57172;52.034;5.090;2024-01-07T06:04:02;24.10;;;11.17;;
69894;SDS011;57172;52.034;5.090;2024-01-07T06:06:29;25.23;;;11.48;;
69894;SDS011;57172;52.034;5.090;2024-01-07T06:08:56;21.67;;;11.50;;
69894;SDS011;57172;52.034;5.090;2024-01-07T06:11:23;22.30;;;11.43;;
69894;SDS011;57172;52.034;5.090;2024-01-07T06:13:50;23.75;;;11.57;;
69894;SDS011;57172;52.034;5.090;2024-01-07T06:16:17;20.30;;;10.30;;
69894;SDS011;57172;52.034;5.090;2024-01-07T06:18:44;22.92;;;11.32;;
69894;SDS011;57172;52.034;5.090;2024-01-07T06:21:11;23.83;;;11.38;;
69894;SDS011;57172;52.034;5.090;2024-01-07T06:23:38;22.08;;;11.38;;
69894;SDS011;57172;52.034;5.090;2024-01-07T06:26:05;23.02;;;10.88;;
69894;SDS011;57172;52.034;5.090;2024-01-07T06:28:32;22.60;;;11.70;;
69894;SDS011;57172;52.034;5.090;2024-01-07T06:31:02;23.73;;;11.93;;
69894;SDS011;57172;52.034;5.090;2024-01-07T06:33:29;23.90;;;11.05;;
69894;SDS011;57172;52.034;5.090;2024-01-07T06:35:56;21.00;;;10.85;;
69894;SDS011;57172;52.034;5.090;2024-01-07T06:38:23;24.25;;;11.63;;
69894;SDS011;57172;52.034;5.090;2024-01-07T06:40:50;23.83;;;11.53;;
69894;SDS011;57172;52.034;5.090;2024-01-07T06:43:17;23.13;;;11.25;;
69894;SDS011;57172;52.034;5.090;2024-01-07T06:45:44;23.20;;;11.90;;
69894;SDS011;57172;52.034;5.090;2024-01-07T06:48:11;23.90;;;11.77;;
69894;SDS011;57172;52.034;5.090;2024-01-07T06:50:39;21.92;;;11.20;;
69894;SDS011;57172;52.034;5.090;2024-01-07T06:53:05;22.97;;;11.70;;
69894;SDS011;57172;52.034;5.090;2024-01-07T06:55:32;23.65;;;12.00;;
69894;SDS011;57172;52.034;5.090;2024-01-07T06:57:59;22.08;;;10.65;;
69894;SDS011;57172;52.034;5.090;2024-01-07T07:00:30;23.45;;;11.07;;
69894;SDS011;57172;52.034;5.090;2024-01-07T07:02:57;22.05;;;10.80;;
69894;SDS011;57172;52.034;5.090;2024-01-07T07:05:24;20.20;;;10.43;;
69894;SDS011;57172;52.034;5.090;2024-01-07T07:07:50;20.55;;;10.73;;
69894;SDS011;57172;52.034;5.090;2024-01-07T07:10:21;19.30;;;10.27;;
69894;SDS011;57172;52.034;5.090;2024-01-07T07:12:48;22.92;;;11.10;;
69894;SDS011;57172;52.034;5.090;2024-01-07T07:15:17;21.05;;;10.18;;
69894;SDS011;57172;52.034;5.090;2024-01-07T07:17:44;21.50;;;10.37;;
69894;SDS011;57172;52.034;5.090;2024-01-07T07:20:11;19.48;;;10.18;;
69894;SDS011;57172;52.034;5.090;2024-01-07T07:22:38;20.73;;;10.40;;
69894;SDS011;57172;52.034;5.090;2024-01-07T07:25:05;21.27;;;10.80;;
69894;SDS011;57172;52.034;5.090;2024-01-07T07:27:32;20.02;;;10.63;;
69894;SDS011;57172;52.034;5.090;2024-01-07T07:29:59;19.13;;;9.60;;
69894;SDS011;57172;52.034;5.090;2024-01-07T07:32:26;19.30;;;10.50;;
69894;SDS011;57172;52.034;5.090;2024-01-07T07:34:53;18.20;;;10.18;;
69894;SDS011;57172;52.034;5.090;2024-01-07T07:37:20;19.90;;;10.57;;
69894;SDS011;57172;52.034;5.090;2024-01-07T07:39:47;21.02;;;10.73;;
69894;SDS011;57172;52.034;5.090;2024-01-07T07:42:15;21.20;;;11.00;;
69894;SDS011;57172;52.034;5.090;2024-01-07T07:44:42;20.10;;;10.63;;
69894;SDS011;57172;52.034;5.090;2024-01-07T07:47:09;21.92;;;11.02;;
69894;SDS011;57172;52.034;5.090;2024-01-07T07:49:38;20.52;;;10.75;;
69894;SDS011;57172;52.034;5.090;2024-01-07T07:52:07;22.55;;;10.80;;
69894;SDS011;57172;52.034;5.090;2024-01-07T07:54:38;21.40;;;10.37;;
69894;SDS011;57172;52.034;5.090;2024-01-07T07:57:05;21.65;;;10.32;;
69894;SDS011;57172;52.034;5.090;2024-01-07T07:59:32;21.58;;;10.68;;
69894;SDS011;57172;52.034;5.090;2024-01-07T08:01:59;19.85;;;10.52;;
69894;SDS011;57172;52.034;5.090;2024-01-07T08:04:26;20.67;;;10.32;;
69894;SDS011;57172;52.034;5.090;2024-01-07T08:06:53;22.23;;;10.17;;
69894;SDS011;57172;52.034;5.090;2024-01-07T08:09:22;19.65;;;9.65;;
69894;SDS011;57172;52.034;5.090;2024-01-07T08:11:51;19.30;;;9.85;;
69894;SDS011;57172;52.034;5.090;2024-01-07T08:14:18;20.30;;;10.18;;
69894;SDS011;57172;52.034;5.090;2024-01-07T08:16:45;20.98;;;9.63;;
69894;SDS011;57172;52.034;5.090;2024-01-07T08:19:12;18.40;;;9.60;;
69894;SDS011;57172;52.034;5.090;2024-01-07T08:21:39;20.73;;;10.13;;
69894;SDS011;57172;52.034;5.090;2024-01-07T08:24:06;17.88;;;9.85;;
69894;SDS011;57172;52.034;5.090;2024-01-07T08:26:33;19.38;;;9.80;;
69894;SDS011;57172;52.034;5.090;2024-01-07T08:29:00;18.95;;;10.02;;
69894;SDS011;57172;52.034;5.090;2024-01-07T08:31:26;18.10;;;9.97;;
69894;SDS011;57172;52.034;5.090;2024-01-07T08:33:54;19.25;;;10.38;;
69894;SDS011;57172;52.034;5.090;2024-01-07T08:36:21;22.85;;;10.50;;
69894;SDS011;57172;52.034;5.090;2024-01-07T08:38:48;21.10;;;10.82;;
69894;SDS011;57172;52.034;5.090;2024-01-07T08:41:15;22.10;;;10.52;;
69894;SDS011;57172;52.034;5.090;2024-01-07T08:43:43;19.77;;;9.57;;
69894;SDS011;57172;52.034;5.090;2024-01-07T08:46:11;20.05;;;10.23;;
69894;SDS011;57172;52.034;5.090;2024-01-07T08:48:40;19.25;;;9.82;;
69894;SDS011;57172;52.034;5.090;2024-01-07T08:51:07;20.02;;;10.57;;
69894;SDS011;57172;52.034;5.090;2024-01-07T08:53:34;19.45;;;10.70;;
69894;SDS011;57172;52.034;5.090;2024-01-07T08:56:01;21.10;;;10.30;;
69894;SDS011;57172;52.034;5.090;2024-01-07T08:58:28;20.63;;;10.73;;
69894;SDS011;57172;52.034;5.090;2024-01-07T09:00:55;19.80;;;10.52;;
69894;SDS011;57172;52.034;5.090;2024-01-07T09:03:22;19.75;;;10.18;;
69894;SDS011;57172;52.034;5.090;2024-01-07T09:05:49;18.25;;;9.77;;
69894;SDS011;57172;52.034;5.090;2024-01-07T09:08:16;19.53;;;10.33;;
69894;SDS011;57172;52.034;5.090;2024-01-07T09:10:43;21.02;;;10.18;;
69894;SDS011;57172;52.034;5.090;2024-01-07T09:13:10;18.48;;;10.32;;
69894;SDS011;57172;52.034;5.090;2024-01-07T09:15:37;19.15;;;9.75;;
69894;SDS011;57172;52.034;5.090;2024-01-07T09:18:04;19.25;;;11.00;;
69894;SDS011;57172;52.034;5.090;2024-01-07T09:20:33;22.23;;;12.13;;
69894;SDS011;57172;52.034;5.090;2024-01-07T09:23:00;25.52;;;13.43;;
69894;SDS011;57172;52.034;5.090;2024-01-07T09:25:27;20.45;;;10.23;;
69894;SDS011;57172;52.034;5.090;2024-01-07T09:27:54;19.10;;;9.98;;
69894;SDS011;57172;52.034;5.090;2024-01-07T09:30:21;17.25;;;9.90;;
69894;SDS011;57172;52.034;5.090;2024-01-07T09:32:48;18.43;;;10.20;;
69894;SDS011;57172;52.034;5.090;2024-01-07T09:35:16;18.75;;;9.88;;
69894;SDS011;57172;52.034;5.090;2024-01-07T09:37:44;17.73;;;9.85;;
69894;SDS011;57172;52.034;5.090;2024-01-07T09:40:11;16.98;;;9.30;;
69894;SDS011;57172;52.034;5.090;2024-01-07T09:42:38;16.52;;;8.93;;
69894;SDS011;57172;52.034;5.090;2024-01-07T09:45:06;18.07;;;9.30;;
69894;SDS011;57172;52.034;5.090;2024-01-07T09:47:33;18.85;;;9.60;;
69894;SDS011;57172;52.034;5.090;2024-01-07T09:50:01;16.50;;;9.48;;
69894;SDS011;57172;52.034;5.090;2024-01-07T09:52:29;18.33;;;9.40;;
69894;SDS011;57172;52.034;5.090;2024-01-07T09:55:00;18.98;;;9.07;;
69894;SDS011;57172;52.034;5.090;2024-01-07T09:57:30;18.27;;;9.30;;
69894;SDS011;57172;52.034;5.090;2024-01-07T09:59:57;17.90;;;9.38;;
69894;SDS011;57172;52.034;5.090;2024-01-07T10:02:24;19.55;;;10.40;;
69894;SDS011;57172;52.034;5.090;2024-01-07T10:04:51;16.73;;;9.23;;
69894;SDS011;57172;52.034;5.090;2024-01-07T10:07:18;19.13;;;9.82;;
69894;SDS011;57172;52.034;5.090;2024-01-07T10:09:45;16.97;;;8.73;;
69894;SDS011;57172;52.034;5.090;2024-01-07T10:12:12;17.70;;;9.18;;
69894;SDS011;57172;52.034;5.090;2024-01-07T10:14:40;18.30;;;9.48;;
69894;SDS011;57172;52.034;5.090;2024-01-07T10:17:16;17.25;;;9.48;;
69894;SDS011;57172;52.034;5.090;2024-01-07T10:19:44;16.58;;;8.38;;
69894;SDS011;57172;52.034;5.090;2024-01-07T10:22:14;20.23;;;9.83;;
69894;SDS011;57172;52.034;5.090;2024-01-07T10:24:42;17.15;;;8.82;;
69894;SDS011;57172;52.034;5.090;2024-01-07T10:27:09;17.27;;;9.00;;
69894;SDS011;57172;52.034;5.090;2024-01-07T10:29:37;16.85;;;8.70;;
69894;SDS011;57172;52.034;5.090;2024-01-07T10:32:04;15.30;;;8.40;;
69894;SDS011;57172;52.034;5.090;2024-01-07T10:34:33;16.87;;;8.10;;
69894;SDS011;57172;52.034;5.090;2024-01-07T10:37:02;15.25;;;8.00;;
69894;SDS011;57172;52.034;5.090;2024-01-07T10:39:31;14.60;;;8.40;;
69894;SDS011;57172;52.034;5.090;2024-01-07T10:41:58;14.07;;;7.72;;
69894;SDS011;57172;52.034;5.090;2024-01-07T10:44:29;13.90;;;7.15;;
69894;SDS011;57172;52.034;5.090;2024-01-07T10:46:58;15.87;;;7.77;;
69894;SDS011;57172;52.034;5.090;2024-01-07T10:49:26;13.27;;;6.70;;
69894;SDS011;57172;52.034;5.090;2024-01-07T10:52:04;16.08;;;7.28;;
69894;SDS011;57172;52.034;5.090;2024-01-07T10:54:33;12.02;;;6.90;;
69894;SDS011;57172;52.034;5.090;2024-01-07T10:57:07;13.45;;;6.88;;
69894;SDS011;57172;52.034;5.090;2024-01-07T10:59:44;14.57;;;6.93;;
69894;SDS011;57172;52.034;5.090;2024-01-07T11:02:11;11.73;;;6.15;;
69894;SDS011;57172;52.034;5.090;2024-01-07T11:04:45;13.20;;;6.10;;
69894;SDS011;57172;52.034;5.090;2024-01-07T11:10:14;13.13;;;5.90;;
69894;SDS011;57172;52.034;5.090;2024-01-07T11:12:55;12.23;;;5.83;;
69894;SDS011;57172;52.034;5.090;2024-01-07T11:18:26;9.35;;;5.18;;
69894;SDS011;57172;52.034;5.090;2024-01-07T11:20:58;9.55;;;5.13;;
69894;SDS011;57172;52.034;5.090;2024-01-07T11:23:42;9.68;;;5.50;;
69894;SDS011;57172;52.034;5.090;2024-01-07T11:26:10;10.33;;;4.77;;
69894;SDS011;57172;52.034;5.090;2024-01-07T11:31:20;7.82;;;4.75;;
69894;SDS011;57172;52.034;5.090;2024-01-07T11:33:49;8.35;;;4.60;;
69894;SDS011;57172;52.034;5.090;2024-01-07T11:36:17;8.55;;;4.60;;
69894;SDS011;57172;52.034;5.090;2024-01-07T11:38:44;7.50;;;4.63;;
69894;SDS011;57172;52.034;5.090;2024-01-07T11:41:20;8.65;;;4.63;;
69894;SDS011;57172;52.034;5.090;2024-01-07T11:43:57;7.68;;;4.60;;
69894;SDS011;57172;52.034;5.090;2024-01-07T11:46:32;7.70;;;4.55;;
69894;SDS011;57172;52.034;5.090;2024-01-07T11:48:59;7.40;;;4.40;;
69894;SDS011;57172;52.034;5.090;2024-01-07T11:53:54;9.18;;;4.43;;
69894;SDS011;57172;52.034;5.090;2024-01-07T11:56:21;7.30;;;4.60;;
69894;SDS011;57172;52.034;5.090;2024-01-07T11:58:48;7.40;;;4.38;;
69894;SDS011;57172;52.034;5.090;2024-01-07T12:01:15;7.93;;;4.68;;
69894;SDS011;57172;52.034;5.090;2024-01-07T12:03:43;8.33;;;4.30;;
69894;SDS011;57172;52.034;5.090;2024-01-07T12:06:10;8.77;;;4.47;;
69894;SDS011;57172;52.034;5.090;2024-01-07T12:08:41;6.75;;;4.22;;
69894;SDS011;57172;52.034;5.090;2024-01-07T12:11:13;9.40;;;4.93;;
69894;SDS011;57172;52.034;5.090;2024-01-07T12:13:40;8.15;;;4.63;;
69894;SDS011;57172;52.034;5.090;2024-01-07T12:16:08;7.70;;;4.00;;
69894;SDS011;57172;52.034;5.090;2024-01-07T12:18:36;7.25;;;3.75;;
69894;SDS011;57172;52.034;5.090;2024-01-07T12:21:04;7.40;;;4.13;;
69894;SDS011;57172;52.034;5.090;2024-01-07T12:23:35;6.20;;;3.65;;
69894;SDS011;57172;52.034;5.090;2024-01-07T12:26:10;7.18;;;3.80;;
69894;SDS011;57172;52.034;5.090;2024-01-07T12:28:38;5.90;;;3.27;;
69894;SDS011;57172;52.034;5.090;2024-01-07T12:31:05;6.30;;;3.38;;
69894;SDS011;57172;52.034;5.090;2024-01-07T12:33:33;5.40;;;3.40;;
69894;SDS011;57172;52.034;5.090;2024-01-07T12:36:00;5.90;;;3.20;;
69894;SDS011;57172;52.034;5.090;2024-01-07T12:38:28;7.57;;;3.22;;
69894;SDS011;57172;52.034;5.090;2024-01-07T12:40:55;4.77;;;3.03;;
69894;SDS011;57172;52.034;5.090;2024-01-07T12:43:22;5.95;;;3.35;;
69894;SDS011;57172;52.034;5.090;2024-01-07T12:45:49;6.15;;;3.30;;
69894;SDS011;57172;52.034;5.090;2024-01-07T12:48:17;5.57;;;3.20;;
69894;SDS011;57172;52.034;5.090;2024-01-07T12:50:44;6.35;;;3.20;;
69894;SDS011;57172;52.034;5.090;2024-01-07T12:53:10;6.97;;;3.40;;
69894;SDS011;57172;52.034;5.090;2024-01-07T12:55:37;5.63;;;3.30;;
69894;SDS011;57172;52.034;5.090;2024-01-07T12:58:04;5.38;;;3.28;;
69894;SDS011;57172;52.034;5.090;2024-01-07T13:00:31;4.97;;;3.00;;
69894;SDS011;57172;52.034;5.090;2024-01-07T13:03:00;7.05;;;3.50;;
69894;SDS011;57172;52.034;5.090;2024-01-07T13:05:27;5.23;;;2.80;;
69894;SDS011;57172;52.034;5.090;2024-01-07T13:07:55;3.35;;;2.60;;
69894;SDS011;57172;52.034;5.090;2024-01-07T13:10:22;5.53;;;2.80;;
69894;SDS011;57172;52.034;5.090;2024-01-07T13:12:50;3.78;;;2.50;;
69894;SDS011;57172;52.034;5.090;2024-01-07T13:15:25;4.40;;;2.80;;
69894;SDS011;57172;52.034;5.090;2024-01-07T13:17:52;3.80;;;2.70;;
69894;SDS011;57172;52.034;5.090;2024-01-07T13:20:19;5.13;;;2.70;;
69894;SDS011;57172;52.034;5.090;2024-01-07T13:22:46;4.25;;;2.80;;
69894;SDS011;57172;52.034;5.090;2024-01-07T13:25:16;4.50;;;2.60;;
69894;SDS011;57172;52.034;5.090;2024-01-07T13:27:43;4.68;;;2.60;;
69894;SDS011;57172;52.034;5.090;2024-01-07T13:30:10;3.60;;;2.40;;
69894;SDS011;57172;52.034;5.090;2024-01-07T13:32:37;4.18;;;2.58;;
69894;SDS011;57172;52.034;5.090;2024-01-07T13:35:05;4.75;;;2.67;;
69894;SDS011;57172;52.034;5.090;2024-01-07T13:37:36;4.78;;;2.60;;
69894;SDS011;57172;52.034;5.090;2024-01-07T13:40:03;4.65;;;2.88;;
69894;SDS011;57172;52.034;5.090;2024-01-07T13:42:31;4.43;;;2.57;;
69894;SDS011;57172;52.034;5.090;2024-01-07T13:44:58;4.93;;;2.70;;
69894;SDS011;57172;52.034;5.090;2024-01-07T13:47:24;3.50;;;2.50;;
69894;SDS011;57172;52.034;5.090;2024-01-07T13:49:52;4.53;;;2.50;;
69894;SDS011;57172;52.034;5.090;2024-01-07T13:52:19;5.18;;;2.40;;
69894;SDS011;57172;52.034;5.090;2024-01-07T13:54:47;4.07;;;2.20;;
69894;SDS011;57172;52.034;5.090;2024-01-07T13:57:14;4.13;;;2.60;;
69894;SDS011;57172;52.034;5.090;2024-01-07T13:59:41;4.07;;;2.72;;
69894;SDS011;57172;52.034;5.090;2024-01-07T14:02:08;4.10;;;2.80;;
69894;SDS011;57172;52.034;5.090;2024-01-07T14:04:35;4.20;;;2.50;;
69894;SDS011;57172;52.034;5.090;2024-01-07T14:07:02;3.67;;;2.60;;
69894;SDS011;57172;52.034;5.090;2024-01-07T14:09:29;4.18;;;2.50;;
69894;SDS011;57172;52.034;5.090;2024-01-07T14:11:58;4.75;;;2.58;;
69894;SDS011;57172;52.034;5.090;2024-01-07T14:14:25;3.70;;;2.30;;
69894;SDS011;57172;52.034;5.090;2024-01-07T14:16:52;3.80;;;2.30;;
69894;SDS011;57172;52.034;5.090;2024-01-07T14:19:19;5.73;;;2.10;;
69894;SDS011;57172;52.034;5.090;2024-01-07T14:21:47;4.90;;;2.65;;
69894;SDS011;57172;52.034;5.090;2024-01-07T14:24:15;3.92;;;2.08;;
69894;SDS011;57172;52.034;5.090;2024-01-07T14:26:42;4.05;;;2.40;;
69894;SDS011;57172;52.034;5.090;2024-01-07T14:29:09;3.72;;;2.10;;
69894;SDS011;57172;52.034;5.090;2024-01-07T14:31:43;3.83;;;2.00;;
69894;SDS011;57172;52.034;5.090;2024-01-07T14:34:12;4.00;;;2.10;;
69894;SDS011;57172;52.034;5.090;2024-01-07T14:36:42;4.07;;;2.10;;
69894;SDS011;57172;52.034;5.090;2024-01-07T14:39:10;4.05;;;2.10;;
69894;SDS011;57172;52.034;5.090;2024-01-07T14:41:37;4.32;;;2.20;;
69894;SDS011;57172;52.034;5.090;2024-01-07T14:44:04;5.97;;;2.70;;